Time;durP1;ratioP1;P1;durP2;ratioP2;P2;SDS_P1;SDS_P2;PMS_P1;PMS_P2;Temp;Humidity;BMP_temperature;BMP_pressure;BME280_temperature;BME280_humidity;BME280_pressure;Samples;Min_cycle;Max_cycle;Signal;HPM_P1;HPM_P2
2023/02/27 00:00:27;;;;;;;6.68;2.20;;;;;;;6.61;40.26;97765.06;5073487;28;20027;-45
2023/02/27 00:02:58;;;;;;;3.42;1.60;;;;;;;6.37;39.52;97766.41;5058924;28;20024;-46
2023/02/27 00:05:41;;;;;;;3.88;1.70;;;;;;;6.18;40.40;97770.56;5095666;28;20103;-46
2023/02/27 00:08:08;;;;;;;4.50;1.98;;;;;;;6.25;41.09;97771.38;5079062;28;20048;-45
2023/02/27 00:10:40;;;;;;;2.60;1.90;;;;;;;6.23;40.42;97765.56;5096161;28;20111;-45
2023/02/27 00:13:09;;;;;;;3.22;1.83;;;;;;;6.09;40.84;97777.72;5077293;28;20032;-46
2023/02/27 00:15:37;;;;;;;5.82;2.15;;;;;;;5.87;40.94;97779.59;5095501;28;20024;-45
2023/02/27 00:18:03;;;;;;;3.50;2.03;;;;;;;5.67;41.32;97782.06;5077366;28;20028;-45
2023/02/27 00:20:36;;;;;;;5.22;2.15;;;;;;;5.66;41.54;97784.88;5077166;28;20028;-46
2023/02/27 00:23:05;;;;;;;3.92;1.83;;;;;;;5.82;41.62;97792.38;5095159;28;20026;-45
2023/02/27 00:25:41;;;;;;;3.17;2.00;;;;;;;5.96;41.17;97798.50;5095201;28;20105;-47
2023/02/27 00:28:13;;;;;;;3.60;3.08;;;;;;;5.92;41.03;97797.25;5095329;28;20032;-45
2023/02/27 00:30:39;;;;;;;2.88;2.00;;;;;;;5.83;42.07;97798.41;5095267;28;20107;-45
2023/02/27 00:33:17;;;;;;;3.85;1.80;;;;;;;5.94;41.38;97803.06;5076964;28;20062;-46
2023/02/27 00:36:14;;;;;;;3.75;2.25;;;;;;;5.90;41.36;97810.47;5077098;28;20109;-45
2023/02/27 00:38:57;;;;;;;11.82;2.03;;;;;;;5.79;41.42;97806.59;5076839;28;20027;-45
2023/02/27 00:41:37;;;;;;;4.63;2.00;;;;;;;5.80;41.94;97815.22;5095071;28;20500;-47
2023/02/27 00:44:10;;;;;;;2.85;1.70;;;;;;;5.78;41.33;97812.00;5095016;28;20020;-45
2023/02/27 00:46:51;;;;;;;3.33;2.30;;;;;;;5.74;41.91;97811.56;5076628;28;20101;-46
2023/02/27 00:49:33;;;;;;;4.80;1.73;;;;;;;5.86;41.70;97822.25;5076622;28;20467;-47
2023/02/27 00:52:08;;;;;;;5.03;2.00;;;;;;;5.84;41.76;97832.06;5076603;28;20466;-45
2023/02/27 00:54:43;;;;;;;7.75;2.20;;;;;;;5.66;42.11;97816.13;5094795;28;20035;-45
2023/02/27 00:57:22;;;;;;;6.85;2.22;;;;;;;5.65;42.14;97814.50;5076444;28;20097;-46
2023/02/27 00:59:54;;;;;;;4.40;1.83;;;;;;;5.74;42.36;97815.97;5094711;28;20099;-46
2023/02/27 01:02:29;;;;;;;3.65;1.67;;;;;;;5.84;42.06;97818.25;5076375;28;20020;-47
2023/02/27 01:05:00;;;;;;;4.25;2.45;;;;;;;5.77;41.67;97816.38;5076451;28;20504;-46
2023/02/27 01:07:32;;;;;;;5.28;1.98;;;;;;;5.66;41.44;97831.75;5094431;28;20039;-46
2023/02/27 01:10:09;;;;;;;;;;;;;;;;;;;;;
2023/02/27 01:13:00;;;;;;;3.33;1.83;;;;;;;5.52;41.59;97836.03;5094419;28;20489;-46
2023/02/27 01:15:31;;;;;;;6.43;2.28;;;;;;;5.59;42.46;97840.31;5085139;28;20024;-46
2023/02/27 01:18:10;;;;;;;4.78;2.00;;;;;;;5.76;42.19;97840.03;5094437;28;20047;-46
2023/02/27 01:20:45;;;;;;;3.80;2.28;;;;;;;6.04;42.01;97831.38;5094249;28;20020;-45
2023/02/27 01:23:11;;;;;;;4.03;1.58;;;;;;;6.19;42.06;97838.06;5094240;28;20393;-45
2023/02/27 01:25:39;;;;;;;5.93;2.15;;;;;;;6.31;41.14;97840.16;5070549;28;20405;-45
2023/02/27 01:28:22;;;;;;;4.50;2.30;;;;;;;6.34;41.14;97835.34;5094198;28;20016;-46
2023/02/27 01:30:57;;;;;;;4.53;2.42;;;;;;;6.30;40.35;97849.78;5088826;28;20520;-45
2023/02/27 01:33:33;;;;;;;3.67;2.10;;;;;;;6.23;41.23;97848.13;5094084;28;20111;-46
2023/02/27 01:36:02;;;;;;;6.22;1.80;;;;;;;6.14;41.14;97853.50;5093997;28;20501;-46
2023/02/27 01:38:40;;;;;;;3.10;2.20;;;;;;;6.08;41.47;97843.84;5093989;28;20058;-46
2023/02/27 01:41:13;;;;;;;5.80;1.95;;;;;;;6.12;41.81;97854.69;5093909;28;20020;-46
2023/02/27 01:44:17;;;;;;;4.25;2.17;;;;;;;6.23;41.85;97853.34;5087385;28;20031;-47
2023/02/27 01:46:55;;;;;;;4.75;2.10;;;;;;;6.47;41.67;97850.22;5091767;28;20024;-46
2023/02/27 01:49:34;;;;;;;5.15;1.90;;;;;;;6.62;40.44;97850.09;5093724;28;20049;-45
2023/02/27 01:52:39;;;;;;;13.10;10.40;;;;;;;6.68;41.04;97846.72;5093310;28;20036;-47
2023/02/27 01:55:11;;;;;;;17.40;9.23;;;;;;;6.72;41.01;97844.50;5093586;28;20124;-45
2023/02/27 01:57:43;;;;;;;10.73;5.00;;;;;;;6.73;40.83;97846.91;5093621;28;20078;-46
2023/02/27 02:00:18;;;;;;;10.95;5.90;;;;;;;6.68;40.41;97858.94;5091103;28;20032;-46
2023/02/27 02:03:36;;;;;;;134.75;82.40;;;;;;;6.60;40.75;97863.34;5087937;28;20587;-47
2023/02/27 02:06:18;;;;;;;12.98;6.72;;;;;;;6.40;41.21;97871.06;5093345;28;20036;-47
2023/02/27 02:08:50;;;;;;;6.15;3.70;;;;;;;6.32;41.30;97875.66;5087302;28;20076;-46
2023/02/27 02:11:31;;;;;;;4.57;2.67;;;;;;;6.39;41.35;97872.06;5108950;28;20051;-46
2023/02/27 02:14:14;;;;;;;4.18;1.90;;;;;;;6.24;40.73;97873.16;5091966;28;20031;-46
2023/02/27 02:17:43;;;;;;;9.55;2.42;;;;;;;6.01;40.81;97869.03;5086848;28;20024;-45
2023/02/27 02:20:47;;;;;;;4.70;2.05;;;;;;;6.07;40.95;97872.69;5093022;28;20040;-46
2023/02/27 02:23:55;;;;;;;3.97;2.15;;;;;;;6.15;41.00;97868.13;5093087;28;20028;-45
2023/02/27 02:27:22;;;;;;;102.10;68.97;;;;;;;6.23;40.86;97869.78;5010623;28;20030;-46
2023/02/27 02:30:34;;;;;;;17.40;12.60;;;;;;;6.27;41.03;97867.59;5010921;28;20574;-46
2023/02/27 02:33:49;;;;;;;6.10;2.58;;;;;;;6.37;41.05;97865.44;4967690;28;20034;-45
2023/02/27 02:36:54;;;;;;;4.63;2.28;;;;;;;6.09;40.75;97873.31;5010636;28;20030;-46
2023/02/27 02:39:48;;;;;;;8.38;2.72;;;;;;;6.10;41.18;97873.13;5010756;28;20092;-45
2023/02/27 02:42:54;;;;;;;4.07;2.00;;;;;;;6.12;40.72;97880.75;4994166;28;20017;-46
2023/02/27 02:45:58;;;;;;;7.65;2.30;;;;;;;6.13;40.33;97885.75;4993928;28;20088;-46
2023/02/27 02:49:09;;;;;;;7.28;2.28;;;;;;;6.06;41.39;97886.72;5010563;28;20045;-47
2023/02/27 02:52:44;;;;;;;3.20;2.05;;;;;;;6.11;40.61;97885.13;5010426;28;20034;-46
2023/02/27 02:56:02;;;;;;;7.95;2.10;;;;;;;6.10;40.51;97893.94;5010435;28;20034;-47
2023/02/27 02:58:49;;;;;;;4.35;1.83;;;;;;;6.04;40.05;97899.09;5010395;28;20095;-46
2023/02/27 03:01:36;;;;;;;6.65;2.10;;;;;;;5.97;40.92;97901.66;5083746;28;20501;-45
2023/02/27 03:04:50;;;;;;;4.28;2.20;;;;;;;6.13;40.37;97906.59;5092244;28;20113;-45
2023/02/27 03:08:01;;;;;;;4.60;2.10;;;;;;;6.03;41.03;97908.72;5092186;28;20028;-47
2023/02/27 03:10:47;;;;;;;3.75;2.53;;;;;;;6.13;41.00;97906.59;5088347;28;20536;-46
2023/02/27 03:13:44;;;;;;;3.17;1.80;;;;;;;6.19;41.34;97903.22;5092269;28;20039;-46
2023/02/27 03:16:48;;;;;;;5.07;2.05;;;;;;;6.33;40.20;97917.13;5030016;28;20119;-46
2023/02/27 03:20:07;;;;;;;3.55;1.73;;;;;;;6.29;40.13;97922.91;5073740;28;20035;-45
2023/02/27 03:23:07;;;;;;;4.82;2.30;;;;;;;6.31;40.56;97924.31;5092120;28;20052;-46
2023/02/27 03:25:46;;;;;;;6.50;1.73;;;;;;;6.33;41.20;97929.34;5092007;28;20035;-47
2023/02/27 03:28:39;;;;;;;4.68;1.80;;;;;;;6.39;41.42;97921.56;5090240;28;20402;-47
2023/02/27 03:31:53;;;;;;;5.72;1.75;;;;;;;6.34;41.19;97933.59;5072366;28;20036;-47
2023/02/27 03:34:39;;;;;;;4.47;2.10;;;;;;;6.31;42.62;97931.34;5091945;28;20032;-47
2023/02/27 03:37:39;;;;;;;;;;;;;;;6.32;41.04;97941.59;5091765;28;20119;-46
2023/02/27 03:40:32;;;;;;;5.03;1.67;;;;;;;6.16;41.00;97950.50;5091921;28;20007;-46
2023/02/27 03:43:37;;;;;;;67.85;50.17;;;;;;;6.12;41.58;97949.28;5071342;28;20029;-47
2023/02/27 03:46:36;;;;;;;7.75;5.63;;;;;;;6.10;41.54;97960.88;5091787;28;20020;-46
2023/02/27 03:49:04;;;;;;;4.30;2.35;;;;;;;5.97;40.93;97964.19;5091905;28;20222;-45
2023/02/27 03:51:50;;;;;;;2.90;2.00;;;;;;;5.77;42.13;97977.00;5070239;28;20024;-46
2023/02/27 03:55:07;;;;;;;4.28;1.88;;;;;;;5.71;42.13;97983.75;5083382;28;20028;-47
2023/02/27 03:58:09;;;;;;;2.50;1.83;;;;;;;5.57;41.80;97979.41;5090594;28;20498;-47
2023/02/27 04:00:54;;;;;;;3.78;1.85;;;;;;;5.51;41.83;97987.97;5091650;28;20020;-47
2023/02/27 04:04:18;;;;;;;3.73;2.40;;;;;;;5.55;42.17;97997.00;5091693;28;20129;-47
2023/02/27 04:10:09;;;;;;;6.28;1.98;;;;;;;5.56;42.31;97999.44;5095964;28;20058;-45
2023/02/27 04:12:39;;;;;;;4.10;1.80;;;;;;;5.54;42.51;98003.22;5097246;28;20428;-45
2023/02/27 04:16:01;;;;;;;2.08;1.50;;;;;;;5.46;41.91;98006.75;5110601;28;20027;-46
2023/02/27 04:19:06;;;;;;;8.90;1.77;;;;;;;5.30;42.11;98015.56;5111909;28;20096;-47
2023/02/27 04:22:13;;;;;;;4.13;2.00;;;;;;;5.32;42.96;98016.19;5111902;28;20081;-47
2023/02/27 04:25:16;;;;;;;6.22;1.60;;;;;;;5.36;42.14;98012.22;5110697;28;20042;-47
2023/02/27 04:28:26;;;;;;;3.13;1.60;;;;;;;5.20;41.62;98018.47;5111688;28;20027;-46
2023/02/27 04:31:13;;;;;;;4.75;1.58;;;;;;;5.07;42.78;98030.50;5111829;28;20031;-46
2023/02/27 04:34:22;;;;;;;4.90;1.90;;;;;;;5.11;43.18;98035.16;5093419;28;20019;-46
2023/02/27 04:37:30;;;;;;;4.45;1.85;;;;;;;5.24;42.67;98033.72;5111594;28;20541;-47
2023/02/27 04:40:34;;;;;;;5.47;1.75;;;;;;;5.30;43.42;98035.59;5112015;28;20464;-47
2023/02/27 04:43:21;;;;;;;6.05;1.70;;;;;;;5.22;42.49;98040.91;5096994;28;20382;-46
2023/02/27 04:46:09;;;;;;;;;;;;;;;5.10;43.06;98048.34;5111651;28;20035;-45
2023/02/27 04:49:31;;;;;;;7.43;2.33;;;;;;;5.03;43.36;98047.44;5093284;28;19918;-45
2023/02/27 04:55:37;;;;;;;1.95;1.50;;;;;;;4.88;43.05;98055.25;5115491;28;20070;-46
2023/02/27 04:58:46;;;;;;;4.85;1.70;;;;;;;4.65;42.80;98056.16;5115285;28;20028;-46
2023/02/27 05:01:53;;;;;;;3.28;1.65;;;;;;;4.39;43.02;98070.34;5115142;28;20038;-46
2023/02/27 05:04:36;;;;;;;;;;;;;;;4.25;43.94;98072.91;5115406;28;20047;-46
2023/02/27 05:07:46;;;;;;;5.00;1.77;;;;;;;4.15;43.91;98076.53;5096655;28;19965;-45
2023/02/27 05:11:09;;;;;;;7.10;2.15;;;;;;;4.09;44.74;98079.84;5113367;28;20124;-46
2023/02/27 05:14:16;;;;;;;5.53;2.15;;;;;;;4.04;44.64;98086.53;5096482;28;20077;-46
2023/02/27 05:17:17;;;;;;;6.05;1.90;;;;;;;4.05;44.99;98088.16;5114849;28;20024;-46
2023/02/27 05:19:54;;;;;;;4.75;1.70;;;;;;;4.05;45.02;98095.94;5114822;28;20106;-46
2023/02/27 05:22:44;;;;;;;6.00;2.00;;;;;;;4.04;45.24;98097.72;5113208;28;20020;-46
2023/02/27 05:25:14;;;;;;;5.35;2.25;;;;;;;4.04;44.76;98104.69;5114666;28;20039;-47
2023/02/27 05:28:17;;;;;;;8.50;4.90;;;;;;;4.06;45.81;98100.94;5114479;28;20489;-47
2023/02/27 05:31:14;;;;;;;7.45;2.55;;;;;;;4.10;45.53;98104.00;5096224;28;20031;-46
2023/02/27 05:34:09;;;;;;;3.70;1.90;;;;;;;4.05;45.41;98120.13;5096264;28;20118;-45
2023/02/27 05:37:03;;;;;;;5.32;2.72;;;;;;;3.99;46.00;98120.81;5113062;28;20032;-46
2023/02/27 05:39:51;;;;;;;9.40;4.05;;;;;;;4.04;46.68;98125.47;5114231;28;20031;-46
2023/02/27 05:42:49;;;;;;;9.10;2.58;;;;;;;4.02;46.13;98123.03;5113232;28;20028;-46
2023/02/27 05:45:38;;;;;;;8.88;4.15;;;;;;;3.96;46.65;98129.75;5096177;28;20559;-45
2023/02/27 05:48:31;;;;;;;7.47;2.42;;;;;;;3.94;46.25;98133.47;5114239;28;20024;-46
2023/02/27 05:51:24;;;;;;;10.43;5.97;;;;;;;3.91;46.13;98142.44;5114030;28;20501;-45
2023/02/27 05:54:41;;;;;;;5.00;2.33;;;;;;;3.88;46.13;98147.16;5114000;28;20024;-45
2023/02/27 05:57:36;;;;;;;7.55;2.72;;;;;;;3.95;46.35;98148.09;5113866;28;20042;-45
2023/02/27 06:00:38;;;;;;;78.63;57.47;;;;;;;4.00;46.21;98145.78;5113625;28;20031;-46
2023/02/27 06:03:05;;;;;;;623.67;557.03;;;;;;;4.12;46.29;98151.38;5095613;28;20405;-47
2023/02/27 06:05:31;;;;;;;441.92;386.60;;;;;;;4.18;47.08;98164.47;5095351;28;20440;-47
2023/02/27 06:08:05;;;;;;;76.65;52.03;;;;;;;4.30;46.64;98159.69;5095561;28;20028;-46
2023/02/27 06:10:39;;;;;;;23.27;9.85;;;;;;;4.27;45.78;98167.06;5112994;28;20055;-45
2023/02/27 06:13:11;;;;;;;14.00;6.43;;;;;;;4.13;45.60;98172.00;5112377;28;20032;-45
2023/02/27 06:15:37;;;;;;;10.63;5.43;;;;;;;4.08;45.81;98176.88;5113617;28;20118;-45
2023/02/27 06:18:22;;;;;;;13.15;5.75;;;;;;;4.05;46.43;98187.63;5095352;28;20024;-45
2023/02/27 06:20:49;;;;;;;9.37;6.03;;;;;;;4.05;45.98;98197.22;5113576;28;20039;-45
2023/02/27 06:23:16;;;;;;;12.02;6.88;;;;;;;4.07;46.40;98201.25;5113435;28;20257;-45
2023/02/27 06:25:43;;;;;;;10.13;5.45;;;;;;;4.08;46.54;98197.66;5113535;28;20035;-45
2023/02/27 06:28:13;;;;;;;8.75;4.32;;;;;;;4.07;46.58;98206.44;5112008;28;20020;-45
2023/02/27 06:30:40;;;;;;;18.50;8.77;;;;;;;3.97;47.23;98209.25;5113350;28;20460;-45
2023/02/27 06:33:19;;;;;;;13.15;6.05;;;;;;;3.89;46.98;98219.66;5095025;28;20126;-45
2023/02/27 06:35:51;;;;;;;7.78;5.13;;;;;;;3.92;47.34;98215.91;5113164;28;20053;-45
2023/02/27 06:38:17;;;;;;;10.02;4.63;;;;;;;4.00;47.50;98226.25;5113208;28;20027;-46
2023/02/27 06:40:51;;;;;;;11.00;3.60;;;;;;;4.12;47.01;98235.28;5113140;28;20059;-45
2023/02/27 06:43:22;;;;;;;13.13;4.28;;;;;;;4.08;47.06;98234.00;5095001;28;20400;-45
2023/02/27 06:45:54;;;;;;;7.45;3.40;;;;;;;4.20;46.81;98232.66;5112867;28;20554;-45
2023/02/27 06:48:23;;;;;;;14.73;7.20;;;;;;;4.33;46.84;98245.09;5112989;28;20023;-46
2023/02/27 06:50:58;;;;;;;12.65;3.35;;;;;;;4.45;46.89;98258.50;5112966;28;20016;-46
2023/02/27 06:53:25;;;;;;;9.40;3.28;;;;;;;4.55;46.30;98259.09;5112885;28;20047;-45
2023/02/27 06:55:52;;;;;;;6.95;2.83;;;;;;;4.59;46.12;98268.16;5113134;28;20023;-44
2023/02/27 06:58:19;;;;;;;8.32;3.05;;;;;;;4.74;46.05;98272.59;5112862;28;20023;-45
2023/02/27 07:00:46;;;;;;;7.72;2.80;;;;;;;4.88;45.97;98271.06;5112755;28;20111;-45
2023/02/27 07:03:13;;;;;;;9.77;2.70;;;;;;;5.03;45.64;98281.50;5112786;28;20515;-45
2023/02/27 07:05:41;;;;;;;15.80;5.47;;;;;;;5.10;45.01;98277.22;5094583;28;20016;-45
2023/02/27 07:08:08;;;;;;;16.45;5.43;;;;;;;5.19;45.13;98268.34;5112557;28;20055;-45
2023/02/27 07:10:36;;;;;;;16.52;3.65;;;;;;;5.47;44.72;98275.59;5107636;28;20463;-45
2023/02/27 07:13:04;;;;;;;13.02;3.67;;;;;;;6.16;43.69;98276.16;5091612;28;20021;-45
2023/02/27 07:15:32;;;;;;;9.40;3.28;;;;;;;6.82;42.80;98284.88;5084387;28;20024;-45
2023/02/27 07:17:59;;;;;;;13.07;5.70;;;;;;;7.33;41.58;98289.97;5092242;28;20021;-45
2023/02/27 07:20:26;;;;;;;22.45;6.47;;;;;;;7.51;41.19;98286.88;5092088;28;20111;-45
2023/02/27 07:23:12;;;;;;;13.05;4.90;;;;;;;7.32;40.18;98283.91;5091804;28;20027;-45
2023/02/27 07:25:38;;;;;;;18.40;7.35;;;;;;;6.98;41.41;98295.91;5092005;28;20485;-45
2023/02/27 07:28:10;;;;;;;24.48;7.38;;;;;;;7.02;41.69;98287.69;5088989;28;20032;-45
2023/02/27 07:30:35;;;;;;;27.50;9.15;;;;;;;6.83;41.41;98302.16;5085003;28;20035;-45
2023/02/27 07:33:02;;;;;;;15.15;9.43;;;;;;;6.59;41.75;98311.94;5107658;28;20020;-45
2023/02/27 07:35:31;;;;;;;21.00;10.02;;;;;;;6.52;41.76;98311.03;5091928;28;20012;-45
2023/02/27 07:37:58;;;;;;;18.33;8.15;;;;;;;6.63;42.51;98307.97;5087800;28;20032;-45
2023/02/27 07:40:26;;;;;;;15.65;6.45;;;;;;;6.58;41.61;98320.75;5091878;28;20020;-45
2023/02/27 07:42:53;;;;;;;10.30;4.53;;;;;;;6.43;41.58;98312.97;5087192;28;20089;-44
2023/02/27 07:45:21;;;;;;;23.63;6.00;;;;;;;6.56;42.18;98320.94;5091827;28;20050;-45
2023/02/27 07:47:48;;;;;;;23.90;4.80;;;;;;;6.95;41.17;98319.72;5091717;28;20082;-45
2023/02/27 07:50:16;;;;;;;27.38;5.30;;;;;;;7.39;40.99;98323.94;5090126;28;20020;-45
2023/02/27 07:52:43;;;;;;;35.85;4.38;;;;;;;7.97;40.70;98330.78;5091663;28;20110;-45
2023/02/27 07:55:12;;;;;;;23.42;3.67;;;;;;;8.98;39.11;98325.75;5091945;28;20020;-45
2023/02/27 07:57:39;;;;;;;26.27;4.97;;;;;;;9.46;37.41;98326.63;5091682;28;20063;-45
2023/02/27 08:00:08;;;;;;;35.40;6.95;;;;;;;9.32;36.87;98338.91;5088838;28;20024;-45
2023/02/27 08:02:35;;;;;;;21.73;4.47;;;;;;;9.40;36.46;98331.66;5091604;28;20061;-45
2023/02/27 08:05:05;;;;;;;46.92;4.95;;;;;;;9.77;36.12;98333.84;5091455;28;20097;-44
2023/02/27 08:07:39;;;;;;;24.33;3.58;;;;;;;9.98;35.70;98346.72;5083818;28;20030;-45
2023/02/27 08:10:22;;;;;;;40.03;4.55;;;;;;;11.26;34.83;98342.53;5089224;28;20049;-46
2023/02/27 08:15:37;;;;;;;72.13;8.73;;;;;;;13.76;31.82;98361.13;5085621;28;20110;-46
2023/02/27 08:18:03;;;;;;;30.48;3.90;;;;;;;13.99;29.87;98365.56;5071603;28;20575;-46
2023/02/27 08:20:33;;;;;;;29.35;4.55;;;;;;;14.22;29.69;98365.78;5069974;28;20035;-47
2023/02/27 08:23:15;;;;;;;47.10;4.65;;;;;;;14.91;29.51;98360.56;5089153;28;20024;-48
2023/02/27 08:25:41;;;;;;;36.45;4.20;;;;;;;15.38;27.71;98369.06;5095290;28;20035;-46
2023/02/27 08:28:07;;;;;;;29.17;4.85;;;;;;;15.51;27.04;98375.09;5075901;28;20028;-46
2023/02/27 08:30:34;;;;;;;16.42;3.53;;;;;;;15.42;26.30;98371.25;5073821;28;20036;-46
2023/02/27 08:33:01;;;;;;;15.40;2.40;;;;;;;14.88;26.56;98382.97;5093065;28;20028;-46
2023/02/27 08:35:28;;;;;;;17.65;3.53;;;;;;;13.58;27.60;98391.00;5095301;28;20059;-46
2023/02/27 08:37:55;;;;;;;79.03;10.38;;;;;;;13.07;29.45;98392.31;5095126;28;20508;-45
2023/02/27 08:40:24;;;;;;;77.88;8.30;;;;;;;13.77;29.29;98397.00;5095176;28;20020;-46
2023/02/27 08:42:51;;;;;;;49.78;5.32;;;;;;;14.62;28.35;98388.81;5095155;28;20020;-45
2023/02/27 08:45:18;;;;;;;20.85;2.88;;;;;;;15.05;27.07;98385.69;5095037;28;20105;-46
2023/02/27 08:47:48;;;;;;;16.67;2.22;;;;;;;15.11;26.71;98391.84;5095005;28;20024;-45
2023/02/27 08:50:15;;;;;;;10.40;2.22;;;;;;;14.45;26.88;98388.72;5094974;28;20024;-45
2023/02/27 08:53:00;;;;;;;8.13;2.00;;;;;;;13.52;27.44;98399.84;5094865;28;20020;-45
2023/02/27 08:55:27;;;;;;;23.45;4.10;;;;;;;13.09;28.41;98397.38;5073299;28;20043;-45
2023/02/27 08:57:55;;;;;;;9.95;2.60;;;;;;;13.53;28.76;98398.00;5091615;28;20027;-45
2023/02/27 09:00:22;;;;;;;13.75;1.92;;;;;;;14.79;27.16;98397.63;5094674;28;20020;-45
2023/02/27 09:02:49;;;;;;;131.00;8.88;;;;;;;15.65;26.66;98394.09;5094691;28;20050;-45
2023/02/27 09:05:18;;;;;;;252.82;21.08;;;;;;;16.75;25.48;98403.06;5094577;28;20024;-44
2023/02/27 09:08:03;;;;;;;123.68;8.73;;;;;;;17.83;24.04;98401.50;5072964;28;20025;-44
2023/02/27 09:10:31;;;;;;;194.65;14.45;;;;;;;18.54;22.96;98403.75;5076361;28;20044;-43
2023/02/27 09:12:59;;;;;;;193.25;12.27;;;;;;;19.38;22.16;98408.28;5094432;28;20067;-44
2023/02/27 09:15:26;;;;;;;241.23;20.70;;;;;;;19.66;22.10;98402.44;5094379;28;20027;-44
2023/02/27 09:17:55;;;;;;;95.68;28.42;;;;;;;19.18;22.58;98412.50;5094333;28;20525;-43
2023/02/27 09:20:22;;;;;;;15.15;8.70;;;;;;;19.01;22.21;98411.94;5094404;28;20451;-44
2023/02/27 09:22:48;;;;;;;1163.40;596.35;;;;;;;18.41;23.34;98412.22;5094212;28;20459;-44
2023/02/27 09:25:16;;;;;;;714.28;345.15;;;;;;;17.56;24.02;98412.91;5094271;28;20016;-43
2023/02/27 09:27:43;;;;;;;1576.13;745.13;;;;;;;16.81;25.12;98413.72;5094165;28;20024;-43
2023/02/27 09:30:10;;;;;;;773.15;439.13;;;;;;;16.41;26.13;98420.91;5094107;28;20054;-43
2023/02/27 09:32:39;;;;;;;265.10;183.15;;;;;;;15.98;26.19;98425.88;5094077;28;20111;-43
2023/02/27 09:35:06;;;;;;;325.50;215.80;;;;;;;15.42;26.30;98434.72;5093129;28;20020;-43
2023/02/27 09:37:32;;;;;;;480.23;266.42;;;;;;;16.26;25.88;98433.94;5093922;28;20032;-43
2023/02/27 09:40:07;;;;;;;225.90;165.90;;;;;;;17.45;25.05;98429.00;5094002;28;20489;-44
2023/02/27 09:42:45;;;;;;;189.55;122.63;;;;;;;18.37;23.59;98424.38;5093906;28;20090;-43
2023/02/27 09:45:38;;;;;;;250.43;153.07;;;;;;;18.06;23.23;98434.03;5093850;28;20047;-44
2023/02/27 09:48:42;;;;;;;74.65;27.88;;;;;;;17.89;24.55;98428.88;5091104;28;20062;-45
2023/02/27 09:51:13;;;;;;;595.35;234.25;;;;;;;19.31;22.94;98427.16;5093630;28;20030;-44
2023/02/27 09:53:46;;;;;;;296.67;200.75;;;;;;;19.34;22.03;98447.94;5075495;28;20649;-44
2023/02/27 09:56:37;;;;;;;252.02;161.10;;;;;;;19.60;22.04;98440.78;5093714;28;20082;-44
2023/02/27 09:59:25;;;;;;;747.85;220.75;;;;;;;19.24;23.20;98446.03;5075422;28;20036;-45
2023/02/27 10:02:13;;;;;;;234.27;100.60;;;;;;;18.91;22.77;98461.38;5093574;28;20024;-44
2023/02/27 10:05:02;;;;;;;304.67;65.97;;;;;;;18.70;23.43;98467.63;5093502;28;20035;-44
2023/02/27 10:07:44;;;;;;;119.72;27.08;;;;;;;18.50;22.99;98476.28;5093441;28;20121;-44
2023/02/27 10:10:52;;;;;;;107.85;11.93;;;;;;;17.99;24.13;98474.09;5095743;28;20582;-44
2023/02/27 10:13:33;;;;;;;52.45;9.93;;;;;;;18.36;24.58;98476.75;5113611;28;20405;-44
2023/02/27 10:16:03;;;;;;;64.95;9.85;;;;;;;18.50;24.15;98476.28;5113584;28;20454;-44
2023/02/27 10:18:56;;;;;;;35.50;8.60;;;;;;;17.89;24.38;98481.97;5113640;28;20099;-44
2023/02/27 10:21:34;;;;;;;38.78;11.60;;;;;;;17.36;25.54;98468.44;5113533;28;20109;-43
2023/02/27 10:24:21;;;;;;;49.38;11.43;;;;;;;16.49;26.52;98478.75;5113563;28;20058;-43
2023/02/27 10:26:51;;;;;;;87.18;10.85;;;;;;;15.98;27.74;98478.81;5113339;28;20504;-43
2023/02/27 10:29:32;;;;;;;58.30;6.63;;;;;;;16.06;27.44;98477.63;5113586;28;20027;-45
2023/02/27 10:32:13;;;;;;;18.95;5.70;;;;;;;15.97;26.59;98481.69;5113348;28;20404;-44
2023/02/27 10:35:19;;;;;;;27.15;6.93;;;;;;;15.55;27.56;98487.31;5113377;28;20027;-44
2023/02/27 10:38:33;;;;;;;48.55;6.13;;;;;;;15.49;28.03;98490.88;5113130;28;20023;-44
2023/02/27 10:41:03;;;;;;;7.85;3.50;;;;;;;15.61;26.90;98499.56;5094830;28;20036;-44
2023/02/27 10:43:36;;;;;;;26.75;4.28;;;;;;;15.78;26.47;98497.00;5113134;28;20031;-43
2023/02/27 10:46:41;;;;;;;50.90;16.50;;;;;;;15.82;27.16;98497.34;5113030;28;20032;-44
2023/02/27 10:49:30;;;;;;;735.83;370.60;;;;;;;16.63;26.35;98499.63;5112961;28;20128;-43
2023/02/27 10:52:26;;;;;;;677.95;346.42;;;;;;;17.59;24.72;98501.84;5094705;28;20020;-44
2023/02/27 10:55:13;;;;;;;1021.10;620.97;;;;;;;17.49;23.73;98494.59;5110020;28;20059;-44
2023/02/27 10:57:54;;;;;;;522.08;455.67;;;;;;;16.53;24.43;98503.72;5097896;28;20042;-44
2023/02/27 11:00:30;;;;;;;511.25;456.08;;;;;;;16.01;25.80;98496.03;5112692;28;20024;-43
2023/02/27 11:03:00;;;;;;;474.10;422.58;;;;;;;15.40;26.28;98510.84;5112846;28;20059;-43
2023/02/27 11:05:42;;;;;;;184.68;147.73;;;;;;;14.79;27.77;98511.22;5094430;28;20038;-44
2023/02/27 11:08:24;;;;;;;165.18;128.57;;;;;;;15.27;27.21;98507.44;5094419;28;20466;-43
2023/02/27 11:11:03;;;;;;;64.72;46.10;;;;;;;15.35;26.78;98509.72;5112297;28;20082;-44
2023/02/27 11:13:33;;;;;;;38.65;10.25;;;;;;;15.14;26.85;98510.34;5112584;28;20027;-44
2023/02/27 11:16:22;;;;;;;560.47;467.42;;;;;;;14.86;27.23;98511.88;5112567;28;20032;-44
2023/02/27 11:18:51;;;;;;;341.95;304.05;;;;;;;14.89;27.40;98510.59;5112585;28;20028;-43
2023/02/27 11:21:27;;;;;;;97.63;79.82;;;;;;;15.08;27.35;98511.28;5112468;28;20042;-44
2023/02/27 11:23:57;;;;;;;78.18;33.80;;;;;;;15.26;27.26;98513.75;5112511;28;20031;-43
2023/02/27 11:26:40;;;;;;;39.88;22.58;;;;;;;15.17;26.78;98501.94;5112269;28;20111;-44
2023/02/27 11:29:16;;;;;;;37.78;19.95;;;;;;;15.04;27.33;98516.22;5112371;28;20031;-43
2023/02/27 11:31:45;;;;;;;40.38;16.38;;;;;;;15.27;27.21;98512.72;5112395;28;20019;-43
2023/02/27 11:34:25;;;;;;;29.27;12.82;;;;;;;15.83;26.11;98505.00;5112320;28;20396;-43
2023/02/27 11:36:56;;;;;;;28.00;11.63;;;;;;;16.01;25.78;98506.63;5093920;28;20051;-43
2023/02/27 11:39:25;;;;;;;29.15;10.25;;;;;;;15.74;25.71;98509.91;5112341;28;20454;-43
2023/02/27 11:41:54;;;;;;;24.02;10.93;;;;;;;15.79;26.48;98509.19;5112200;28;20051;-44
2023/02/27 11:44:30;;;;;;;15.20;4.25;;;;;;;15.83;26.07;98517.44;5112200;28;20020;-44
2023/02/27 11:47:16;;;;;;;20.98;5.50;;;;;;;16.00;26.00;98507.69;5112163;28;20035;-44
2023/02/27 11:50:32;;;;;;;8.35;3.25;;;;;;;16.50;26.18;98512.19;5112271;28;20039;-44
2023/02/27 11:53:06;;;;;;;14.80;4.93;;;;;;;17.48;25.12;98508.09;5111923;28;20035;-44
2023/02/27 11:55:32;;;;;;;12.43;3.25;;;;;;;18.41;24.00;98505.22;5112040;28;20038;-44
2023/02/27 11:58:29;;;;;;;21.95;4.43;;;;;;;18.94;23.27;98484.78;5112208;28;20028;-44
2023/02/27 12:01:13;;;;;;;;;;;;;;;18.91;23.54;98495.97;5114016;28;20040;-44
2023/02/27 12:04:00;;;;;;;50.97;8.88;;;;;;;18.77;23.47;98492.09;5097953;28;19908;-44
2023/02/27 12:07:04;;;;;;;24.15;4.47;;;;;;;18.05;23.58;98493.50;5098281;28;20520;-44
2023/02/27 12:10:17;;;;;;;15.50;5.43;;;;;;;18.10;23.54;98477.63;5116208;28;20020;-45
2023/02/27 12:13:42;;;;;;;15.43;9.25;;;;;;;19.16;23.01;98481.94;5094466;28;20055;-44
2023/02/27 12:17:06;;;;;;;28.65;16.23;;;;;;;20.10;21.91;98468.50;5116016;28;20447;-45
2023/02/27 12:19:42;;;;;;;21.95;8.55;;;;;;;20.19;21.01;98479.41;5091410;28;20100;-45
2023/02/27 12:22:32;;;;;;;23.40;7.13;;;;;;;19.85;21.40;98479.16;5115976;28;20076;-45
2023/02/27 12:25:20;;;;;;;28.40;13.10;;;;;;;19.93;21.53;98470.63;5114073;28;20503;-45
2023/02/27 12:28:18;;;;;;;39.10;25.40;;;;;;;20.29;21.36;98457.28;5115790;28;20016;-44
2023/02/27 12:31:27;;;;;;;18.90;15.05;;;;;;;20.67;20.95;98468.44;5115707;28;20035;-45
2023/02/27 12:34:12;;;;;;;23.15;13.00;;;;;;;20.97;20.50;98458.69;5115533;28;20039;-45
2023/02/27 12:37:09;;;;;;;30.25;23.52;;;;;;;20.92;20.20;98460.31;5115609;28;20031;-45
2023/02/27 12:39:53;;;;;;;49.40;26.10;;;;;;;20.61;20.91;98453.53;5115558;28;20031;-46
2023/02/27 12:42:55;;;;;;;35.35;26.58;;;;;;;20.27;21.24;98449.56;5115465;28;20035;-45
2023/02/27 12:45:45;;;;;;;26.52;20.17;;;;;;;20.33;20.79;98453.03;5097168;28;20028;-44
2023/02/27 12:48:47;;;;;;;29.70;18.63;;;;;;;20.32;20.45;98457.56;5097112;28;20031;-45
2023/02/27 12:52:13;;;;;;;21.23;12.18;;;;;;;20.32;20.88;98449.56;5097378;28;20024;-45
2023/02/27 12:55:26;;;;;;;;;;;;;;;;;;;;;
2023/02/27 12:58:29;;;;;;;23.55;12.52;;;;;;;20.36;19.77;98439.13;5114447;28;20035;-44